sensor_id;sensor_type;location;lat;lon;timestamp;pressure;altitude;pressure_sealevel;temperature;humidity
75536;BME280;64119;52.070;20.804;2022-12-07T00:01:30;99756.98;;;2.84;89.54
75536;BME280;64119;52.070;20.804;2022-12-07T00:03:59;99754.95;;;2.92;89.78
75536;BME280;64119;52.070;20.804;2022-12-07T00:06:34;99756.83;;;2.97;89.70
75536;BME280;64119;52.070;20.804;2022-12-07T00:09:01;99755.58;;;3.01;89.45
75536;BME280;64119;52.070;20.804;2022-12-07T00:11:27;99755.34;;;3.03;89.48
75536;BME280;64119;52.070;20.804;2022-12-07T00:13:59;99753.54;;;3.04;89.12
75536;BME280;64119;52.070;20.804;2022-12-07T00:16:28;99750.71;;;3.06;89.14
75536;BME280;64119;52.070;20.804;2022-12-07T00:18:55;99749.58;;;3.05;89.29
75536;BME280;64119;52.070;20.804;2022-12-07T00:21:24;99748.20;;;3.03;89.35
75536;BME280;64119;52.070;20.804;2022-12-07T00:23:51;99745.91;;;3.05;89.51
75536;BME280;64119;52.070;20.804;2022-12-07T00:26:19;99740.55;;;3.06;89.61
75536;BME280;64119;52.070;20.804;2022-12-07T00:28:47;99736.61;;;3.11;89.95
75536;BME280;64119;52.070;20.804;2022-12-07T00:31:15;99729.71;;;3.13;89.50
75536;BME280;64119;52.070;20.804;2022-12-07T00:33:42;99733.08;;;3.16;89.81
75536;BME280;64119;52.070;20.804;2022-12-07T00:36:15;99736.21;;;3.18;89.39
75536;BME280;64119;52.070;20.804;2022-12-07T00:38:41;99733.70;;;3.13;89.42
75536;BME280;64119;52.070;20.804;2022-12-07T00:41:13;99733.52;;;3.08;89.87
75536;BME280;64119;52.070;20.804;2022-12-07T00:43:42;99728.35;;;3.09;90.26
75536;BME280;64119;52.070;20.804;2022-12-07T00:46:08;99729.25;;;3.07;89.92
75536;BME280;64119;52.070;20.804;2022-12-07T00:48:35;99730.16;;;3.11;90.21
75536;BME280;64119;52.070;20.804;2022-12-07T00:51:02;99733.29;;;3.15;90.13
75536;BME280;64119;52.070;20.804;2022-12-07T00:53:28;99732.92;;;3.22;89.85
75536;BME280;64119;52.070;20.804;2022-12-07T00:55:55;99730.89;;;3.27;90.01
75536;BME280;64119;52.070;20.804;2022-12-07T00:58:24;99730.41;;;3.28;89.77
75536;BME280;64119;52.070;20.804;2022-12-07T01:00:51;99729.07;;;3.28;89.90
75536;BME280;64119;52.070;20.804;2022-12-07T01:03:17;99730.13;;;3.23;90.28
75536;BME280;64119;52.070;20.804;2022-12-07T01:05:52;99725.12;;;3.19;89.91
75536;BME280;64119;52.070;20.804;2022-12-07T01:08:19;99727.02;;;3.14;90.46
75536;BME280;64119;52.070;20.804;2022-12-07T01:10:46;99725.11;;;3.12;90.25
75536;BME280;64119;52.070;20.804;2022-12-07T01:13:13;99720.39;;;3.09;90.58
75536;BME280;64119;52.070;20.804;2022-12-07T01:15:44;99721.80;;;3.09;90.47
75536;BME280;64119;52.070;20.804;2022-12-07T01:18:11;99716.99;;;3.06;90.66
75536;BME280;64119;52.070;20.804;2022-12-07T01:20:37;99711.75;;;3.06;90.70
75536;BME280;64119;52.070;20.804;2022-12-07T01:23:04;99709.20;;;3.07;90.78
75536;BME280;64119;52.070;20.804;2022-12-07T01:25:30;99711.48;;;3.09;91.09
75536;BME280;64119;52.070;20.804;2022-12-07T01:27:56;99712.85;;;3.07;91.08
75536;BME280;64119;52.070;20.804;2022-12-07T01:30:23;99717.48;;;3.06;90.95
75536;BME280;64119;52.070;20.804;2022-12-07T01:32:49;99719.97;;;3.09;91.27
75536;BME280;64119;52.070;20.804;2022-12-07T01:35:16;99720.64;;;3.15;90.65
75536;BME280;64119;52.070;20.804;2022-12-07T01:37:42;99721.80;;;3.20;90.66
75536;BME280;64119;52.070;20.804;2022-12-07T01:40:09;99724.19;;;3.23;90.76
75536;BME280;64119;52.070;20.804;2022-12-07T01:42:35;99720.02;;;3.26;90.57
75536;BME280;64119;52.070;20.804;2022-12-07T01:45:36;99720.22;;;3.27;90.54
75536;BME280;64119;52.070;20.804;2022-12-07T01:48:04;99712.46;;;3.32;90.36
75536;BME280;64119;52.070;20.804;2022-12-07T01:50:32;99712.23;;;3.33;90.70
75536;BME280;64119;52.070;20.804;2022-12-07T01:53:01;99710.15;;;3.35;90.52
75536;BME280;64119;52.070;20.804;2022-12-07T01:55:30;99712.73;;;3.37;90.34
75536;BME280;64119;52.070;20.804;2022-12-07T01:57:56;99714.30;;;3.37;90.67
75536;BME280;64119;52.070;20.804;2022-12-07T02:00:23;99714.73;;;3.34;90.49
75536;BME280;64119;52.070;20.804;2022-12-07T02:02:54;99719.39;;;3.33;90.55
75536;BME280;64119;52.070;20.804;2022-12-07T02:05:24;99717.35;;;3.33;90.67
75536;BME280;64119;52.070;20.804;2022-12-07T02:07:53;99714.72;;;3.31;90.49
75536;BME280;64119;52.070;20.804;2022-12-07T02:10:21;99712.63;;;3.31;90.94
75536;BME280;64119;52.070;20.804;2022-12-07T02:12:51;99709.30;;;3.29;90.69
75536;BME280;64119;52.070;20.804;2022-12-07T02:15:20;99708.23;;;3.30;90.51
75536;BME280;64119;52.070;20.804;2022-12-07T02:17:57;99708.21;;;3.33;90.62
75536;BME280;64119;52.070;20.804;2022-12-07T02:29:02;99712.06;;;3.23;90.77
75536;BME280;64119;52.070;20.804;2022-12-07T02:31:23;99709.41;;;3.22;90.36
75536;BME280;64119;52.070;20.804;2022-12-07T02:34:02;99709.20;;;3.19;90.34
75536;BME280;64119;52.070;20.804;2022-12-07T02:36:33;99702.75;;;3.13;90.50
75536;BME280;64119;52.070;20.804;2022-12-07T02:39:08;99705.46;;;3.13;90.62
75536;BME280;64119;52.070;20.804;2022-12-07T02:57:41;99699.17;;;2.98;90.40
75536;BME280;64119;52.070;20.804;2022-12-07T03:00:13;99697.50;;;2.89;90.32
75536;BME280;64119;52.070;20.804;2022-12-07T03:02:51;99698.20;;;2.83;90.13
75536;BME280;64119;52.070;20.804;2022-12-07T03:16:19;99688.74;;;2.56;90.14
75536;BME280;64119;52.070;20.804;2022-12-07T03:18:55;99686.38;;;2.55;90.30
75536;BME280;64119;52.070;20.804;2022-12-07T03:21:26;99688.01;;;2.53;90.26
75536;BME280;64119;52.070;20.804;2022-12-07T03:23:56;99683.06;;;2.53;90.64
75536;BME280;64119;52.070;20.804;2022-12-07T03:26:32;99686.91;;;2.55;90.46
75536;BME280;64119;52.070;20.804;2022-12-07T03:29:06;99686.41;;;2.58;90.44
75536;BME280;64119;52.070;20.804;2022-12-07T03:31:40;99677.81;;;2.55;90.36
75536;BME280;64119;52.070;20.804;2022-12-07T03:42:00;99676.17;;;2.51;89.74
75536;BME280;64119;52.070;20.804;2022-12-07T03:44:31;99675.38;;;2.47;89.77
75536;BME280;64119;52.070;20.804;2022-12-07T03:49:43;99669.42;;;2.40;89.69
75536;BME280;64119;52.070;20.804;2022-12-07T03:52:22;99669.38;;;2.37;89.65
75536;BME280;64119;52.070;20.804;2022-12-07T03:57:23;99668.45;;;2.32;90.11
75536;BME280;64119;52.070;20.804;2022-12-07T03:59:53;99666.47;;;2.31;90.45
75536;BME280;64119;52.070;20.804;2022-12-07T04:02:22;99662.71;;;2.29;90.11
75536;BME280;64119;52.070;20.804;2022-12-07T04:04:50;99655.27;;;2.30;89.93
75536;BME280;64119;52.070;20.804;2022-12-07T04:07:18;99654.82;;;2.28;89.88
75536;BME280;64119;52.070;20.804;2022-12-07T04:09:46;99654.59;;;2.26;90.35
75536;BME280;64119;52.070;20.804;2022-12-07T04:12:14;99653.04;;;2.26;90.30
75536;BME280;64119;52.070;20.804;2022-12-07T04:14:42;99661.23;;;2.26;90.04
75536;BME280;64119;52.070;20.804;2022-12-07T04:17:09;99657.89;;;2.23;90.20
75536;BME280;64119;52.070;20.804;2022-12-07T04:19:37;99657.91;;;2.25;89.90
75536;BME280;64119;52.070;20.804;2022-12-07T04:22:05;99656.56;;;2.24;90.10
75536;BME280;64119;52.070;20.804;2022-12-07T04:24:34;99656.98;;;2.24;89.93
75536;BME280;64119;52.070;20.804;2022-12-07T04:27:02;99656.08;;;2.17;89.89
75536;BME280;64119;52.070;20.804;2022-12-07T04:29:29;99651.79;;;2.11;89.69
75536;BME280;64119;52.070;20.804;2022-12-07T04:31:57;99650.27;;;2.07;89.68
75536;BME280;64119;52.070;20.804;2022-12-07T04:34:25;99652.04;;;2.07;89.90
75536;BME280;64119;52.070;20.804;2022-12-07T04:36:53;99651.88;;;2.07;89.83
75536;BME280;64119;52.070;20.804;2022-12-07T04:39:29;99651.81;;;2.02;89.94
75536;BME280;64119;52.070;20.804;2022-12-07T04:41:58;99653.73;;;1.97;89.90
75536;BME280;64119;52.070;20.804;2022-12-07T04:44:26;99652.45;;;1.95;90.02
75536;BME280;64119;52.070;20.804;2022-12-07T04:46:55;99649.61;;;1.94;90.10
75536;BME280;64119;52.070;20.804;2022-12-07T04:49:24;99648.75;;;1.92;90.16
75536;BME280;64119;52.070;20.804;2022-12-07T04:51:52;99650.81;;;1.93;90.27
75536;BME280;64119;52.070;20.804;2022-12-07T04:54:20;99651.30;;;1.91;90.35
75536;BME280;64119;52.070;20.804;2022-12-07T04:56:48;99646.20;;;1.88;90.33
75536;BME280;64119;52.070;20.804;2022-12-07T04:59:16;99645.34;;;1.86;90.46
75536;BME280;64119;52.070;20.804;2022-12-07T05:01:44;99639.73;;;1.88;90.41
75536;BME280;64119;52.070;20.804;2022-12-07T05:04:12;99641.02;;;1.90;90.39
75536;BME280;64119;52.070;20.804;2022-12-07T05:06:40;99637.26;;;1.85;90.56
75536;BME280;64119;52.070;20.804;2022-12-07T05:09:08;99632.54;;;1.84;90.38
75536;BME280;64119;52.070;20.804;2022-12-07T05:11:36;99631.35;;;1.80;90.50
75536;BME280;64119;52.070;20.804;2022-12-07T05:14:10;99627.36;;;1.79;91.02
75536;BME280;64119;52.070;20.804;2022-12-07T05:16:39;99625.95;;;1.78;90.48
75536;BME280;64119;52.070;20.804;2022-12-07T05:19:08;99625.13;;;1.81;90.56
75536;BME280;64119;52.070;20.804;2022-12-07T05:21:36;99625.02;;;1.79;90.42
75536;BME280;64119;52.070;20.804;2022-12-07T05:24:05;99626.61;;;1.77;90.43
75536;BME280;64119;52.070;20.804;2022-12-07T05:26:33;99622.32;;;1.74;90.54
75536;BME280;64119;52.070;20.804;2022-12-07T05:29:02;99626.87;;;1.76;90.46
75536;BME280;64119;52.070;20.804;2022-12-07T05:31:30;99624.79;;;1.74;90.40
75536;BME280;64119;52.070;20.804;2022-12-07T05:33:58;99628.55;;;1.71;90.49
75536;BME280;64119;52.070;20.804;2022-12-07T05:36:26;99627.64;;;1.70;90.41
75536;BME280;64119;52.070;20.804;2022-12-07T05:38:56;99625.96;;;1.69;90.84
75536;BME280;64119;52.070;20.804;2022-12-07T05:41:23;99627.13;;;1.65;90.70
75536;BME280;64119;52.070;20.804;2022-12-07T05:44:10;99628.98;;;1.63;90.58
75536;BME280;64119;52.070;20.804;2022-12-07T05:46:37;99631.66;;;1.64;90.61
75536;BME280;64119;52.070;20.804;2022-12-07T05:49:05;99630.73;;;1.62;90.88
75536;BME280;64119;52.070;20.804;2022-12-07T05:51:33;99637.25;;;1.61;90.74
75536;BME280;64119;52.070;20.804;2022-12-07T05:54:01;99636.29;;;1.60;90.80
75536;BME280;64119;52.070;20.804;2022-12-07T05:56:28;99634.59;;;1.61;91.17
75536;BME280;64119;52.070;20.804;2022-12-07T05:58:56;99631.55;;;1.62;90.65
75536;BME280;64119;52.070;20.804;2022-12-07T06:01:43;99632.30;;;1.62;90.95
75536;BME280;64119;52.070;20.804;2022-12-07T06:04:11;99631.94;;;1.62;90.89
75536;BME280;64119;52.070;20.804;2022-12-07T06:06:38;99629.59;;;1.63;90.93
75536;BME280;64119;52.070;20.804;2022-12-07T06:09:06;99631.33;;;1.63;90.91
75536;BME280;64119;52.070;20.804;2022-12-07T06:11:34;99630.27;;;1.63;91.40
75536;BME280;64119;52.070;20.804;2022-12-07T06:14:21;99628.55;;;1.62;90.90
75536;BME280;64119;52.070;20.804;2022-12-07T06:16:48;99626.02;;;1.64;90.90
75536;BME280;64119;52.070;20.804;2022-12-07T06:19:16;99623.02;;;1.62;90.78
75536;BME280;64119;52.070;20.804;2022-12-07T06:21:44;99621.37;;;1.59;90.73
75536;BME280;64119;52.070;20.804;2022-12-07T06:24:13;99622.80;;;1.57;90.59
75536;BME280;64119;52.070;20.804;2022-12-07T06:26:41;99622.67;;;1.53;90.61
75536;BME280;64119;52.070;20.804;2022-12-07T06:29:10;99627.70;;;1.48;90.89
75536;BME280;64119;52.070;20.804;2022-12-07T06:31:39;99623.02;;;1.48;90.70
75536;BME280;64119;52.070;20.804;2022-12-07T06:34:10;99623.50;;;1.50;90.90
75536;BME280;64119;52.070;20.804;2022-12-07T06:36:38;99620.47;;;1.54;90.94
75536;BME280;64119;52.070;20.804;2022-12-07T06:39:07;99618.57;;;1.54;90.61
75536;BME280;64119;52.070;20.804;2022-12-07T06:41:37;99622.86;;;1.55;90.80
75536;BME280;64119;52.070;20.804;2022-12-07T06:44:06;99622.30;;;1.55;91.16
75536;BME280;64119;52.070;20.804;2022-12-07T06:46:34;99625.91;;;1.57;91.47
75536;BME280;64119;52.070;20.804;2022-12-07T06:49:03;99625.41;;;1.62;91.36
75536;BME280;64119;52.070;20.804;2022-12-07T06:51:32;99625.79;;;1.61;91.75
75536;BME280;64119;52.070;20.804;2022-12-07T06:54:00;99626.69;;;1.65;91.78
75536;BME280;64119;52.070;20.804;2022-12-07T06:56:27;99624.23;;;1.69;91.67
75536;BME280;64119;52.070;20.804;2022-12-07T06:58:56;99624.19;;;1.71;91.21
75536;BME280;64119;52.070;20.804;2022-12-07T07:01:24;99624.14;;;1.70;91.44
75536;BME280;64119;52.070;20.804;2022-12-07T07:03:51;99623.17;;;1.68;90.53
75536;BME280;64119;52.070;20.804;2022-12-07T07:06:19;99624.92;;;1.62;90.62
75536;BME280;64119;52.070;20.804;2022-12-07T07:08:47;99624.98;;;1.58;90.72
75536;BME280;64119;52.070;20.804;2022-12-07T07:11:15;99622.65;;;1.57;90.85
75536;BME280;64119;52.070;20.804;2022-12-07T07:13:44;99625.80;;;1.59;91.35
75536;BME280;64119;52.070;20.804;2022-12-07T07:16:12;99625.23;;;1.63;91.34
75536;BME280;64119;52.070;20.804;2022-12-07T07:18:39;99628.77;;;1.65;91.33
75536;BME280;64119;52.070;20.804;2022-12-07T07:21:07;99623.60;;;1.68;91.58
75536;BME280;64119;52.070;20.804;2022-12-07T07:23:35;99626.64;;;1.71;91.34
75536;BME280;64119;52.070;20.804;2022-12-07T07:26:03;99626.69;;;1.73;91.31
75536;BME280;64119;52.070;20.804;2022-12-07T07:28:30;99626.35;;;1.71;91.20
75536;BME280;64119;52.070;20.804;2022-12-07T07:30:58;99626.81;;;1.69;91.22
75536;BME280;64119;52.070;20.804;2022-12-07T07:33:26;99630.04;;;1.68;91.10
75536;BME280;64119;52.070;20.804;2022-12-07T07:35:53;99630.14;;;1.68;90.45
75536;BME280;64119;52.070;20.804;2022-12-07T07:38:21;99633.03;;;1.67;91.07
75536;BME280;64119;52.070;20.804;2022-12-07T07:40:49;99633.44;;;1.68;91.21
75536;BME280;64119;52.070;20.804;2022-12-07T07:43:17;99634.89;;;1.69;91.29
75536;BME280;64119;52.070;20.804;2022-12-07T07:45:44;99631.97;;;1.70;91.28
75536;BME280;64119;52.070;20.804;2022-12-07T07:48:12;99630.36;;;1.71;91.38
75536;BME280;64119;52.070;20.804;2022-12-07T07:50:40;99629.54;;;1.74;91.26
75536;BME280;64119;52.070;20.804;2022-12-07T07:53:08;99630.54;;;1.76;91.35
75536;BME280;64119;52.070;20.804;2022-12-07T07:55:36;99631.39;;;1.80;91.21
75536;BME280;64119;52.070;20.804;2022-12-07T07:58:04;99631.00;;;1.82;91.41
75536;BME280;64119;52.070;20.804;2022-12-07T08:00:31;99631.13;;;1.84;91.45
75536;BME280;64119;52.070;20.804;2022-12-07T08:02:59;99636.29;;;1.86;91.40
75536;BME280;64119;52.070;20.804;2022-12-07T08:05:27;99634.77;;;1.91;91.54
75536;BME280;64119;52.070;20.804;2022-12-07T08:07:54;99642.46;;;1.94;91.60
75536;BME280;64119;52.070;20.804;2022-12-07T08:10:22;99640.29;;;1.97;91.79
75536;BME280;64119;52.070;20.804;2022-12-07T08:12:50;99642.68;;;1.97;91.43
75536;BME280;64119;52.070;20.804;2022-12-07T08:15:57;99644.23;;;1.98;91.94
75536;BME280;64119;52.070;20.804;2022-12-07T08:18:25;99646.64;;;1.99;91.74
75536;BME280;64119;52.070;20.804;2022-12-07T08:20:59;99645.42;;;2.05;91.81
75536;BME280;64119;52.070;20.804;2022-12-07T08:23:28;99648.41;;;2.10;91.55
75536;BME280;64119;52.070;20.804;2022-12-07T08:26:09;99648.48;;;2.13;91.37
75536;BME280;64119;52.070;20.804;2022-12-07T08:28:37;99650.19;;;2.16;91.34
75536;BME280;64119;52.070;20.804;2022-12-07T08:31:11;99647.05;;;2.15;91.40
75536;BME280;64119;52.070;20.804;2022-12-07T08:33:39;99651.64;;;2.19;91.30
75536;BME280;64119;52.070;20.804;2022-12-07T08:36:09;99648.00;;;2.26;91.38
75536;BME280;64119;52.070;20.804;2022-12-07T08:38:39;99646.98;;;2.33;91.33
75536;BME280;64119;52.070;20.804;2022-12-07T08:41:07;99650.27;;;2.38;91.13
75536;BME280;64119;52.070;20.804;2022-12-07T08:43:36;99652.73;;;2.46;91.22
75536;BME280;64119;52.070;20.804;2022-12-07T08:46:35;99653.64;;;2.53;91.23
75536;BME280;64119;52.070;20.804;2022-12-07T08:49:12;99651.02;;;2.60;91.14
75536;BME280;64119;52.070;20.804;2022-12-07T08:51:40;99649.11;;;2.63;91.17
75536;BME280;64119;52.070;20.804;2022-12-07T08:54:13;99651.23;;;2.66;91.41
75536;BME280;64119;52.070;20.804;2022-12-07T08:56:43;99649.37;;;2.71;90.99
75536;BME280;64119;52.070;20.804;2022-12-07T08:59:13;99650.41;;;2.78;90.95
75536;BME280;64119;52.070;20.804;2022-12-07T09:01:42;99651.23;;;2.84;90.81
75536;BME280;64119;52.070;20.804;2022-12-07T09:04:10;99647.88;;;2.89;90.93
75536;BME280;64119;52.070;20.804;2022-12-07T09:06:38;99644.86;;;2.94;90.88
75536;BME280;64119;52.070;20.804;2022-12-07T09:09:07;99643.88;;;2.95;90.88
75536;BME280;64119;52.070;20.804;2022-12-07T09:11:36;99641.83;;;2.95;90.91
75536;BME280;64119;52.070;20.804;2022-12-07T09:14:03;99637.66;;;2.96;90.87
75536;BME280;64119;52.070;20.804;2022-12-07T09:16:31;99639.11;;;2.98;90.46
75536;BME280;64119;52.070;20.804;2022-12-07T09:18:59;99639.55;;;2.97;90.33
75536;BME280;64119;52.070;20.804;2022-12-07T09:21:27;99638.58;;;2.96;90.53
75536;BME280;64119;52.070;20.804;2022-12-07T09:23:54;99635.80;;;2.96;90.61
75536;BME280;64119;52.070;20.804;2022-12-07T09:26:22;99636.91;;;2.97;90.50
75536;BME280;64119;52.070;20.804;2022-12-07T09:28:50;99633.23;;;2.99;90.72
75536;BME280;64119;52.070;20.804;2022-12-07T09:31:17;99632.54;;;3.00;90.61
75536;BME280;64119;52.070;20.804;2022-12-07T09:33:56;99627.64;;;3.02;90.44
75536;BME280;64119;52.070;20.804;2022-12-07T09:36:25;99626.48;;;3.00;90.23
75536;BME280;64119;52.070;20.804;2022-12-07T09:38:53;99625.95;;;3.01;90.59
75536;BME280;64119;52.070;20.804;2022-12-07T09:41:22;99625.67;;;3.02;90.57
75536;BME280;64119;52.070;20.804;2022-12-07T09:43:52;99628.00;;;3.03;90.39
75536;BME280;64119;52.070;20.804;2022-12-07T09:46:20;99632.19;;;3.08;90.46
75536;BME280;64119;52.070;20.804;2022-12-07T09:48:49;99632.81;;;3.11;90.25
75536;BME280;64119;52.070;20.804;2022-12-07T09:51:23;99632.45;;;3.12;90.10
75536;BME280;64119;52.070;20.804;2022-12-07T09:53:54;99632.49;;;3.14;90.09
75536;BME280;64119;52.070;20.804;2022-12-07T09:56:24;99631.10;;;3.17;89.85
75536;BME280;64119;52.070;20.804;2022-12-07T09:58:58;99625.66;;;3.19;89.89
75536;BME280;64119;52.070;20.804;2022-12-07T10:01:33;99624.98;;;3.19;89.98
75536;BME280;64119;52.070;20.804;2022-12-07T10:04:11;99624.09;;;3.17;90.06
75536;BME280;64119;52.070;20.804;2022-12-07T10:06:41;99619.90;;;3.19;89.89
75536;BME280;64119;52.070;20.804;2022-12-07T10:09:17;99617.14;;;3.20;90.01
75536;BME280;64119;52.070;20.804;2022-12-07T10:12:03;99619.34;;;3.19;89.76
75536;BME280;64119;52.070;20.804;2022-12-07T10:14:33;99621.58;;;3.21;89.79
75536;BME280;64119;52.070;20.804;2022-12-07T10:17:38;99616.83;;;3.18;89.81
75536;BME280;64119;52.070;20.804;2022-12-07T10:22:54;99617.23;;;3.24;89.63
75536;BME280;64119;52.070;20.804;2022-12-07T10:25:26;99615.48;;;3.28;89.82
75536;BME280;64119;52.070;20.804;2022-12-07T10:27:59;99614.98;;;3.31;89.87
75536;BME280;64119;52.070;20.804;2022-12-07T10:30:28;99612.84;;;3.38;89.72
75536;BME280;64119;52.070;20.804;2022-12-07T10:32:56;99616.63;;;3.35;89.57
75536;BME280;64119;52.070;20.804;2022-12-07T10:35:28;99619.98;;;3.32;89.35
75536;BME280;64119;52.070;20.804;2022-12-07T10:37:59;99615.94;;;3.33;89.37
75536;BME280;64119;52.070;20.804;2022-12-07T10:40:31;99615.59;;;3.33;88.97
75536;BME280;64119;52.070;20.804;2022-12-07T10:51:42;99613.44;;;3.30;89.24
75536;BME280;64119;52.070;20.804;2022-12-07T10:54:37;99604.23;;;3.32;89.46
75536;BME280;64119;52.070;20.804;2022-12-07T11:00:01;99608.17;;;3.34;89.47
75536;BME280;64119;52.070;20.804;2022-12-07T11:03:15;99608.21;;;3.37;89.26
75536;BME280;64119;52.070;20.804;2022-12-07T11:09:04;99602.84;;;3.38;89.05
75536;BME280;64119;52.070;20.804;2022-12-07T11:20:37;99604.43;;;3.33;88.83
75536;BME280;64119;52.070;20.804;2022-12-07T11:36:44;99595.23;;;3.32;89.23
75536;BME280;64119;52.070;20.804;2022-12-07T11:42:09;99595.12;;;3.25;89.01
75536;BME280;64119;52.070;20.804;2022-12-07T11:47:16;99592.95;;;3.19;88.85
75536;BME280;64119;52.070;20.804;2022-12-07T11:50:14;99589.90;;;3.12;89.11
75536;BME280;64119;52.070;20.804;2022-12-07T11:52:52;99587.41;;;3.07;89.24
75536;BME280;64119;52.070;20.804;2022-12-07T11:55:32;99586.62;;;3.07;89.16
75536;BME280;64119;52.070;20.804;2022-12-07T12:00:51;99585.65;;;3.01;89.09
75536;BME280;64119;52.070;20.804;2022-12-07T12:03:29;99584.58;;;2.96;89.25
75536;BME280;64119;52.070;20.804;2022-12-07T12:05:59;99586.25;;;2.95;89.25
75536;BME280;64119;52.070;20.804;2022-12-07T12:08:31;99585.11;;;2.93;89.37
75536;BME280;64119;52.070;20.804;2022-12-07T12:11:27;99580.08;;;2.88;89.33
75536;BME280;64119;52.070;20.804;2022-12-07T12:22:47;99568.69;;;2.81;89.15
75536;BME280;64119;52.070;20.804;2022-12-07T12:25:31;99565.17;;;2.81;89.15
75536;BME280;64119;52.070;20.804;2022-12-07T12:28:04;99559.81;;;2.81;89.59
75536;BME280;64119;52.070;20.804;2022-12-07T12:30:37;99558.41;;;2.83;89.44
75536;BME280;64119;52.070;20.804;2022-12-07T12:33:29;99557.42;;;2.87;89.23
75536;BME280;64119;52.070;20.804;2022-12-07T12:36:18;99562.34;;;2.82;89.14
75536;BME280;64119;52.070;20.804;2022-12-07T12:38:51;99556.19;;;2.84;89.27
75536;BME280;64119;52.070;20.804;2022-12-07T12:46:58;99550.63;;;2.93;88.96
75536;BME280;64119;52.070;20.804;2022-12-07T12:49:33;99548.98;;;2.94;88.87
75536;BME280;64119;52.070;20.804;2022-12-07T12:57:36;99543.75;;;3.01;88.83
75536;BME280;64119;52.070;20.804;2022-12-07T13:00:20;99543.46;;;2.97;88.60
75536;BME280;64119;52.070;20.804;2022-12-07T13:02:53;99538.66;;;2.93;88.40
75536;BME280;64119;52.070;20.804;2022-12-07T13:05:24;99538.75;;;2.89;88.51
75536;BME280;64119;52.070;20.804;2022-12-07T13:07:58;99542.59;;;2.89;88.38
75536;BME280;64119;52.070;20.804;2022-12-07T13:29:11;99530.52;;;2.82;88.50
75536;BME280;64119;52.070;20.804;2022-12-07T13:31:43;99533.56;;;2.82;88.37
75536;BME280;64119;52.070;20.804;2022-12-07T13:34:33;99536.40;;;2.80;88.79
75536;BME280;64119;52.070;20.804;2022-12-07T13:37:24;99545.70;;;2.82;88.51
75536;BME280;64119;52.070;20.804;2022-12-07T13:39:58;99544.68;;;2.79;88.44
75536;BME280;64119;52.070;20.804;2022-12-07T13:44:56;99543.77;;;2.74;88.26
75536;BME280;64119;52.070;20.804;2022-12-07T13:47:38;99547.48;;;2.72;88.58
75536;BME280;64119;52.070;20.804;2022-12-07T13:50:31;99551.68;;;2.74;88.43
75536;BME280;64119;52.070;20.804;2022-12-07T13:53:01;99549.05;;;2.74;88.52
75536;BME280;64119;52.070;20.804;2022-12-07T13:55:29;99549.19;;;2.74;88.42
75536;BME280;64119;52.070;20.804;2022-12-07T13:57:57;99548.56;;;2.74;88.28
75536;BME280;64119;52.070;20.804;2022-12-07T14:00:27;99548.46;;;2.73;88.00
75536;BME280;64119;52.070;20.804;2022-12-07T14:05:27;99554.33;;;2.68;88.06
75536;BME280;64119;52.070;20.804;2022-12-07T14:11:01;99551.85;;;2.60;88.02
75536;BME280;64119;52.070;20.804;2022-12-07T14:15:58;99546.50;;;2.53;87.89
75536;BME280;64119;52.070;20.804;2022-12-07T14:21:27;99541.90;;;2.46;87.98
75536;BME280;64119;52.070;20.804;2022-12-07T14:24:18;99544.31;;;2.44;87.57
75536;BME280;64119;52.070;20.804;2022-12-07T14:26:48;99542.41;;;2.37;87.80
75536;BME280;64119;52.070;20.804;2022-12-07T14:31:54;99548.16;;;2.23;87.87
75536;BME280;64119;52.070;20.804;2022-12-07T14:34:23;99541.47;;;2.19;87.68
75536;BME280;64119;52.070;20.804;2022-12-07T14:36:51;99541.08;;;2.09;87.97
75536;BME280;64119;52.070;20.804;2022-12-07T14:39:19;99546.23;;;2.05;88.02
75536;BME280;64119;52.070;20.804;2022-12-07T14:41:47;99548.48;;;2.01;88.37
75536;BME280;64119;52.070;20.804;2022-12-07T14:44:20;99547.31;;;1.96;88.49
75536;BME280;64119;52.070;20.804;2022-12-07T14:46:53;99546.44;;;1.92;88.41
75536;BME280;64119;52.070;20.804;2022-12-07T14:49:41;99544.70;;;1.89;88.62
75536;BME280;64119;52.070;20.804;2022-12-07T14:52:16;99542.91;;;1.85;88.70
75536;BME280;64119;52.070;20.804;2022-12-07T14:55:08;99542.17;;;1.81;89.05
75536;BME280;64119;52.070;20.804;2022-12-07T14:57:39;99539.60;;;1.82;89.05
75536;BME280;64119;52.070;20.804;2022-12-07T15:00:09;99537.81;;;1.84;88.96
75536;BME280;64119;52.070;20.804;2022-12-07T15:02:40;99538.48;;;1.86;89.01
75536;BME280;64119;52.070;20.804;2022-12-07T15:05:09;99536.02;;;1.86;89.04
75536;BME280;64119;52.070;20.804;2022-12-07T15:07:44;99533.23;;;1.85;89.04
75536;BME280;64119;52.070;20.804;2022-12-07T15:10:22;99531.23;;;1.82;89.20
75536;BME280;64119;52.070;20.804;2022-12-07T15:12:51;99530.63;;;1.80;89.25
75536;BME280;64119;52.070;20.804;2022-12-07T15:15:19;99532.60;;;1.77;88.91
75536;BME280;64119;52.070;20.804;2022-12-07T15:17:47;99530.09;;;1.74;89.45
75536;BME280;64119;52.070;20.804;2022-12-07T15:20:15;99529.69;;;1.73;89.40
75536;BME280;64119;52.070;20.804;2022-12-07T15:22:44;99532.08;;;1.72;89.49
75536;BME280;64119;52.070;20.804;2022-12-07T15:25:13;99536.66;;;1.70;89.69
75536;BME280;64119;52.070;20.804;2022-12-07T15:27:41;99537.85;;;1.67;89.62
75536;BME280;64119;52.070;20.804;2022-12-07T15:30:09;99532.29;;;1.67;89.97
75536;BME280;64119;52.070;20.804;2022-12-07T15:32:37;99528.79;;;1.70;89.95
75536;BME280;64119;52.070;20.804;2022-12-07T15:35:05;99526.23;;;1.71;89.89
75536;BME280;64119;52.070;20.804;2022-12-07T15:37:33;99527.59;;;1.72;89.99
75536;BME280;64119;52.070;20.804;2022-12-07T15:40:01;99526.93;;;1.71;90.28
75536;BME280;64119;52.070;20.804;2022-12-07T15:42:35;99523.64;;;1.73;90.09
75536;BME280;64119;52.070;20.804;2022-12-07T15:45:05;99518.63;;;1.76;90.39
75536;BME280;64119;52.070;20.804;2022-12-07T15:47:37;99515.92;;;1.78;90.23
75536;BME280;64119;52.070;20.804;2022-12-07T15:50:25;99514.04;;;1.82;90.05
75536;BME280;64119;52.070;20.804;2022-12-07T15:52:53;99518.87;;;1.85;90.30